createdAt,value
2018-12-27T00:00:30.526Z,0
2018-12-27T00:01:10.880Z,0
2018-12-27T00:01:51.273Z,0
2018-12-27T00:02:31.716Z,0
2018-12-27T00:03:12.090Z,0
2018-12-27T00:03:52.490Z,0
2018-12-27T00:04:32.927Z,0
2018-12-27T00:05:13.410Z,0
2018-12-27T00:05:53.697Z,0
2018-12-27T00:06:34.121Z,0
2018-12-27T00:07:14.540Z,0
2018-12-27T00:07:54.936Z,0
2018-12-27T00:08:35.294Z,0
2018-12-27T00:09:15.733Z,0
2018-12-27T00:09:56.106Z,0
2018-12-27T00:10:36.538Z,0
2018-12-27T00:11:16.884Z,0
2018-12-27T00:11:57.299Z,0
2018-12-27T00:12:37.681Z,0
2018-12-27T00:13:18.082Z,0
2018-12-27T00:13:58.471Z,0
2018-12-27T00:14:38.858Z,0
2018-12-27T00:15:19.254Z,0
2018-12-27T00:15:59.688Z,0
2018-12-27T00:16:40.075Z,0
2018-12-27T00:17:20.447Z,0
2018-12-27T00:18:00.807Z,0
2018-12-27T00:18:41.189Z,0
2018-12-27T00:19:21.637Z,0
2018-12-27T00:20:01.994Z,0
2018-12-27T00:20:42.411Z,0
2018-12-27T00:21:22.773Z,0
2018-12-27T00:22:03.173Z,0
2018-12-27T00:22:43.579Z,0
2018-12-27T00:23:24.016Z,0
2018-12-27T00:24:04.384Z,0
2018-12-27T00:24:44.778Z,0
2018-12-27T00:25:25.166Z,0
2018-12-27T00:26:05.582Z,0
2018-12-27T00:26:45.986Z,0
2018-12-27T00:27:27.305Z,0
2018-12-27T00:28:07.731Z,0
2018-12-27T00:28:48.101Z,0
2018-12-27T00:29:28.490Z,0
2018-12-27T00:30:08.882Z,0
2018-12-27T00:30:49.281Z,0
2018-12-27T00:31:29.628Z,0
2018-12-27T00:32:10.037Z,0
2018-12-27T00:32:50.405Z,0
2018-12-27T00:33:32.636Z,0
2018-12-27T00:34:13.045Z,0
2018-12-27T00:34:53.418Z,0
2018-12-27T00:35:33.817Z,0
2018-12-27T00:36:14.274Z,0
2018-12-27T00:36:54.572Z,0
2018-12-27T00:37:35.010Z,0
2018-12-27T00:38:15.350Z,0
2018-12-27T00:38:55.773Z,0
2018-12-27T00:39:36.116Z,0
2018-12-27T00:40:16.508Z,0
2018-12-27T00:40:56.888Z,0
2018-12-27T00:41:37.290Z,0
2018-12-27T00:42:17.714Z,0
2018-12-27T00:42:59.851Z,0
2018-12-27T00:43:38.428Z,0
2018-12-27T00:44:18.816Z,0
2018-12-27T00:44:59.267Z,0
2018-12-27T00:45:39.606Z,0
2018-12-27T00:46:20.027Z,0
2018-12-27T00:47:00.441Z,0
2018-12-27T00:47:40.831Z,0
2018-12-27T00:48:21.253Z,0
2018-12-27T00:49:01.622Z,0
2018-12-27T00:49:42.060Z,0
2018-12-27T00:50:22.428Z,0
2018-12-27T00:51:02.868Z,0
2018-12-27T00:51:43.243Z,0
2018-12-27T00:52:23.629Z,0
2018-12-27T00:53:04.059Z,0
2018-12-27T00:53:44.448Z,0
2018-12-27T00:54:24.863Z,0
2018-12-27T00:55:05.233Z,0
2018-12-27T00:55:45.590Z,0
2018-12-27T00:56:25.991Z,0
2018-12-27T00:57:06.370Z,0
2018-12-27T00:57:46.756Z,0
2018-12-27T00:58:27.161Z,0
2018-12-27T00:59:07.536Z,0
2018-12-27T00:59:47.974Z,0
2018-12-27T01:00:28.311Z,0
2018-12-27T01:01:08.720Z,0
2018-12-27T01:01:49.103Z,0
2018-12-27T01:02:29.483Z,0
2018-12-27T01:03:11.199Z,0
2018-12-27T01:03:50.305Z,0
2018-12-27T01:04:30.686Z,0
2018-12-27T01:05:11.111Z,0
2018-12-27T01:05:51.483Z,0
2018-12-27T01:06:31.886Z,0
2018-12-27T01:07:12.340Z,0
2018-12-27T01:07:52.736Z,0
2018-12-27T01:08:33.154Z,0
2018-12-27T01:09:13.519Z,0
2018-12-27T01:09:53.907Z,0
2018-12-27T01:10:34.300Z,0
2018-12-27T03:04:15.885Z,0
2018-12-27T03:04:57.142Z,0
2018-12-27T03:05:37.556Z,0
2018-12-27T03:06:17.948Z,0
2018-12-27T03:06:58.288Z,0
2018-12-27T03:07:38.677Z,0
2018-12-27T03:08:19.126Z,0
2018-12-27T03:08:59.499Z,0
2018-12-27T03:09:39.928Z,0
2018-12-27T03:10:20.294Z,0
2018-12-27T03:11:00.700Z,0
2018-12-27T03:11:41.090Z,0
2018-12-27T03:12:21.466Z,0
2018-12-27T03:13:01.881Z,0
2018-12-27T03:13:42.260Z,0
2018-12-27T03:14:22.688Z,0
2018-12-27T03:15:03.032Z,0
2018-12-27T03:15:43.445Z,0
2018-12-27T03:16:23.806Z,0
2018-12-27T03:17:04.214Z,0
2018-12-27T03:17:44.664Z,0
2018-12-27T03:18:25.053Z,0
2018-12-27T03:19:05.404Z,0
2018-12-27T03:19:45.813Z,0
2018-12-27T03:20:26.213Z,0
2018-12-27T03:21:06.598Z,0
2018-12-27T03:21:46.974Z,0
2018-12-27T03:22:27.370Z,0
2018-12-27T03:23:07.800Z,0
2018-12-27T03:23:48.231Z,0
2018-12-27T03:24:28.614Z,0
2018-12-27T03:25:09.045Z,0
2018-12-27T03:25:49.442Z,0
2018-12-27T03:26:29.834Z,0
2018-12-27T03:27:10.187Z,0
2018-12-27T03:27:50.581Z,0
2018-12-27T03:28:30.977Z,0
2018-12-27T03:29:11.402Z,0
2018-12-27T03:29:51.766Z,0
2018-12-27T03:30:32.127Z,0
2018-12-27T03:31:12.516Z,0
2018-12-27T03:31:52.926Z,0
2018-12-27T03:32:33.277Z,0
2018-12-27T03:33:13.701Z,0
2018-12-27T03:33:54.172Z,0
2018-12-27T03:34:34.555Z,0
2018-12-27T03:35:14.983Z,0
2018-12-27T03:35:55.337Z,0
2018-12-27T03:36:35.743Z,0
2018-12-27T03:37:16.171Z,0
2018-12-27T03:37:56.570Z,0
2018-12-27T03:38:36.947Z,0
2018-12-27T03:39:17.381Z,0
2018-12-27T03:39:57.707Z,0
2018-12-27T03:40:38.126Z,0
2018-12-27T03:41:18.537Z,0
2018-12-27T03:41:58.928Z,0
2018-12-27T03:42:39.303Z,0
2018-12-27T03:43:19.714Z,0
2018-12-27T03:44:00.085Z,0
2018-12-27T03:44:40.508Z,0
2018-12-27T03:45:20.877Z,0
2018-12-27T03:46:01.321Z,0
2018-12-27T03:46:41.639Z,0
2018-12-27T03:47:22.024Z,0
2018-12-27T03:48:02.447Z,0
2018-12-27T03:48:42.799Z,0
2018-12-27T03:49:23.214Z,0
2018-12-27T03:50:03.598Z,0
2018-12-27T03:50:43.965Z,0
2018-12-27T03:51:24.380Z,0
2018-12-27T03:52:04.769Z,0
2018-12-27T03:52:45.203Z,0
2018-12-27T03:53:25.554Z,0
2018-12-27T03:54:05.930Z,0
2018-12-27T03:54:46.340Z,0
2018-12-27T03:55:26.713Z,0
2018-12-27T03:56:07.098Z,0
2018-12-27T03:56:47.482Z,0
2018-12-27T03:57:27.864Z,0
2018-12-27T03:58:08.237Z,0
2018-12-27T03:58:48.610Z,0
2018-12-27T03:59:29.038Z,0
2018-12-27T04:00:09.484Z,0
2018-12-27T04:00:49.899Z,0
2018-12-27T04:01:30.296Z,0
2018-12-27T04:02:10.664Z,0
2018-12-27T04:02:51.101Z,0
2018-12-27T04:03:31.579Z,0
2018-12-27T04:04:11.995Z,0
2018-12-27T04:04:52.446Z,0
2018-12-27T04:05:32.774Z,0
2018-12-27T04:06:13.207Z,0
2018-12-27T04:06:53.587Z,0
2018-12-27T04:07:34.061Z,0
2018-12-27T04:08:14.382Z,0
2018-12-27T04:08:54.780Z,0
2018-12-27T04:09:35.159Z,0
2018-12-27T04:10:15.596Z,0
2018-12-27T04:10:55.999Z,0
2018-12-27T04:11:36.345Z,0
2018-12-27T04:12:16.728Z,0
2018-12-27T04:12:57.168Z,0
2018-12-27T04:13:37.498Z,0
2018-12-27T04:14:17.918Z,0
2018-12-27T04:14:58.325Z,0
2018-12-27T04:15:38.690Z,0
2018-12-27T04:16:19.132Z,0
2018-12-27T04:16:59.498Z,0
2018-12-27T04:17:39.934Z,0
2018-12-27T04:18:20.275Z,0
2018-12-27T04:19:00.723Z,0
2018-12-27T04:19:41.077Z,0
2018-12-27T04:20:21.474Z,0
2018-12-27T04:21:01.860Z,0
2018-12-27T04:21:42.320Z,0
2018-12-27T04:22:22.656Z,0
2018-12-27T04:23:03.022Z,0
2018-12-27T04:23:43.449Z,0
2018-12-27T04:24:24.734Z,0
2018-12-27T04:25:05.154Z,0
2018-12-27T04:25:45.502Z,0
2018-12-27T04:26:25.876Z,0
2018-12-27T04:27:06.274Z,0
2018-12-27T04:27:46.628Z,0
2018-12-27T04:28:28.750Z,0
2018-12-27T05:58:56.711Z,0
2018-12-27T05:59:37.066Z,0
2018-12-27T06:00:17.437Z,0
2018-12-27T06:00:57.871Z,0
2018-12-27T06:01:38.322Z,0
2018-12-27T06:02:18.587Z,0
2018-12-27T06:02:58.989Z,0
2018-12-27T06:03:39.401Z,0
2018-12-27T06:04:19.762Z,0
2018-12-27T06:05:00.168Z,0
2018-12-27T06:08:38.759Z,0
2018-12-27T06:09:19.033Z,0
2018-12-27T06:09:59.446Z,0
2018-12-27T06:10:39.831Z,0
2018-12-27T06:11:20.226Z,0
2018-12-27T06:12:00.609Z,0
2018-12-27T06:12:41.071Z,0
2018-12-27T06:13:21.348Z,0
2018-12-27T06:14:01.764Z,0
2018-12-27T06:14:42.117Z,0
2018-12-27T06:15:22.493Z,0
2018-12-27T06:16:02.879Z,0
2018-12-27T06:16:43.246Z,0
2018-12-27T06:17:25.528Z,0
2018-12-27T06:18:05.946Z,0
2018-12-27T06:18:46.372Z,0
2018-12-27T06:19:26.710Z,0
2018-12-27T06:20:07.160Z,0
2018-12-27T06:20:47.522Z,0
2018-12-27T06:21:27.884Z,0
2018-12-27T06:22:08.270Z,0
2018-12-27T06:22:48.660Z,0
2018-12-27T06:23:29.066Z,0
2018-12-27T06:24:09.439Z,0
2018-12-27T06:24:49.803Z,0
2018-12-27T06:25:30.191Z,0
2018-12-27T06:26:10.647Z,0
2018-12-27T06:26:50.988Z,0
2018-12-27T06:27:31.377Z,0
2018-12-27T06:28:11.786Z,0
2018-12-27T06:28:52.175Z,0
2018-12-27T06:29:32.562Z,0
2018-12-27T06:30:12.977Z,0
2018-12-27T06:30:54.304Z,0
2018-12-27T06:31:34.723Z,0
2018-12-27T06:32:15.103Z,0
2018-12-27T06:32:55.482Z,0
2018-12-27T06:33:35.885Z,0
2018-12-27T06:34:17.323Z,0
2018-12-27T06:34:59.523Z,0
2018-12-27T06:35:39.933Z,0
2018-12-27T06:36:20.315Z,0
2018-12-27T06:37:00.693Z,0
2018-12-27T06:37:41.070Z,0
2018-12-27T06:38:21.489Z,0
2018-12-27T06:39:01.867Z,0
2018-12-27T06:39:42.256Z,0
2018-12-27T06:40:22.674Z,0
2018-12-27T06:41:03.086Z,0
2018-12-27T06:41:43.411Z,0
2018-12-27T06:42:23.768Z,0
2018-12-27T06:43:04.181Z,0
2018-12-27T06:43:44.515Z,0
2018-12-27T06:44:26.842Z,0
2018-12-27T06:45:08.167Z,0
2018-12-27T06:45:48.557Z,0
2018-12-27T06:46:29.011Z,0
2018-12-27T06:47:09.365Z,0
2018-12-27T06:47:49.729Z,0
2018-12-27T06:48:30.128Z,0
2018-12-27T06:49:10.495Z,0
2018-12-27T06:49:50.882Z,0
2018-12-27T06:50:31.276Z,0
2018-12-27T06:51:11.710Z,0
2018-12-27T06:51:52.054Z,0
2018-12-27T06:52:33.446Z,0
2018-12-27T06:53:13.804Z,0
2018-12-27T06:53:54.222Z,0
2018-12-27T06:54:34.602Z,0
2018-12-27T06:55:14.988Z,0
2018-12-27T06:55:55.412Z,0
2018-12-27T06:56:35.779Z,0
2018-12-27T06:57:16.212Z,0
2018-12-27T06:57:56.543Z,0
2018-12-27T06:58:37.794Z,0
2018-12-27T06:59:17.330Z,4
2018-12-27T07:00:01.335Z,4
2018-12-27T07:00:41.734Z,0
2018-12-27T07:01:22.133Z,0
2018-12-27T07:02:02.482Z,0
2018-12-27T07:02:44.442Z,4
2018-12-27T07:03:24.836Z,4
2018-12-27T07:04:05.211Z,0
2018-12-27T07:04:48.965Z,0
2018-12-27T07:05:26.975Z,4
2018-12-27T07:06:07.350Z,0
2018-12-27T07:06:47.735Z,4
2018-12-27T07:07:28.232Z,4
2018-12-27T07:08:09.523Z,4
2018-12-27T07:08:49.968Z,8
2018-12-27T07:09:30.352Z,4
2018-12-27T07:10:19.543Z,4
2018-12-27T07:10:59.997Z,8
2018-12-27T07:11:40.387Z,8
2018-12-27T07:12:20.753Z,8
2018-12-27T07:13:01.111Z,8
2018-12-27T07:13:41.547Z,8
2018-12-27T07:14:21.997Z,12
2018-12-27T07:15:02.381Z,8
2018-12-27T07:15:43.710Z,12
2018-12-27T07:16:24.158Z,12
2018-12-27T07:17:04.459Z,16
2018-12-27T07:17:45.018Z,16
2018-12-27T07:18:25.357Z,20
2018-12-27T07:19:06.681Z,16
2018-12-27T07:19:47.043Z,20
2018-12-27T07:20:29.007Z,20
2018-12-27T07:21:09.387Z,20
2018-12-27T07:21:50.805Z,20
2018-12-27T07:22:31.229Z,24
2018-12-27T07:23:11.599Z,24
2018-12-27T07:23:51.926Z,28
2018-12-27T07:24:32.352Z,32
2018-12-27T07:25:13.679Z,32
2018-12-27T07:25:57.854Z,32
2018-12-27T07:26:38.209Z,40
2018-12-27T07:27:20.537Z,40
2018-12-27T07:28:00.957Z,44
2018-12-27T07:28:41.360Z,48
2018-12-27T07:29:21.730Z,48
2018-12-27T07:30:02.164Z,52
2018-12-27T07:30:42.546Z,56
2018-12-27T07:31:22.947Z,64
2018-12-27T07:32:03.314Z,68
2018-12-27T07:32:44.669Z,72
2018-12-27T07:33:25.037Z,76
2018-12-27T07:34:06.387Z,80
2018-12-27T07:34:48.485Z,88
2018-12-27T07:35:28.882Z,92
2018-12-27T07:36:09.277Z,96
2018-12-27T09:24:29.833Z,804
2018-12-27T09:25:10.217Z,804
2018-12-27T09:25:50.681Z,800
2018-12-27T09:26:31.021Z,804
2018-12-27T09:27:11.593Z,808
2018-12-27T09:27:51.916Z,816
2018-12-27T09:28:32.304Z,812
2018-12-27T09:29:12.670Z,816
2018-12-27T09:29:53.916Z,812
2018-12-27T09:30:35.061Z,812
2018-12-27T09:31:15.476Z,816
2018-12-27T09:31:55.894Z,816
2018-12-27T09:32:36.274Z,820
2018-12-27T09:33:16.666Z,832
2018-12-27T09:33:57.056Z,848
2018-12-27T09:34:37.440Z,844
2018-12-27T09:35:17.824Z,848
2018-12-27T09:35:59.901Z,856
2018-12-27T09:36:40.383Z,864
2018-12-27T09:37:20.758Z,876
2018-12-27T09:38:01.105Z,884
2018-12-27T09:38:41.539Z,884
2018-12-27T09:39:21.943Z,896
2018-12-27T09:40:03.249Z,904
2018-12-27T09:40:43.626Z,908
2018-12-27T09:41:24.065Z,916
2018-12-27T09:42:07.250Z,920
2018-12-27T09:42:47.671Z,916
2018-12-27T09:43:28.050Z,924
2018-12-27T09:44:08.413Z,932
2018-12-27T09:44:48.798Z,924
2018-12-27T09:45:29.199Z,920
2018-12-27T09:46:09.593Z,924
2018-12-27T09:46:49.986Z,924
2018-12-27T09:47:30.418Z,920
2018-12-27T09:48:10.786Z,924
2018-12-27T09:48:51.232Z,924
2018-12-27T09:49:31.584Z,928
2018-12-27T09:50:11.960Z,932
2018-12-27T09:50:52.402Z,944
2018-12-27T09:51:32.730Z,940
2018-12-27T09:52:13.115Z,940
2018-12-27T09:52:53.514Z,940
2018-12-27T09:53:33.927Z,932
2018-12-27T09:54:14.285Z,932
2018-12-27T09:54:54.668Z,928
2018-12-27T09:55:35.123Z,928
2018-12-27T09:56:15.562Z,924
2018-12-27T09:56:55.915Z,924
2018-12-27T09:57:36.249Z,920
2018-12-27T09:58:16.625Z,920
2018-12-27T09:58:57.027Z,924
2018-12-27T09:59:37.565Z,936
2018-12-27T10:00:17.835Z,944
2018-12-27T10:00:58.247Z,944
2018-12-27T10:01:38.614Z,948
2018-12-27T10:02:18.998Z,948
2018-12-27T10:02:59.451Z,956
2018-12-27T10:03:39.808Z,968
2018-12-27T10:04:20.218Z,968
2018-12-27T10:05:00.579Z,976
2018-12-27T10:05:41.006Z,976
2018-12-27T10:06:21.477Z,988
2018-12-27T10:07:01.777Z,996
2018-12-27T10:07:42.174Z,1004
2018-12-27T10:08:22.628Z,1008
2018-12-27T10:09:02.954Z,1004
2018-12-27T10:09:43.348Z,996
2018-12-27T10:10:23.785Z,996
2018-12-27T10:11:04.143Z,1000
2018-12-27T10:11:44.533Z,1004
2018-12-27T10:12:24.931Z,1012
2018-12-27T10:13:05.383Z,1020
2018-12-27T10:13:45.749Z,1028
2018-12-27T10:14:26.116Z,1036
2018-12-27T10:15:06.519Z,1048
2018-12-27T10:15:47.884Z,1056
2018-12-27T10:16:28.246Z,1060
2018-12-27T10:17:08.635Z,1064
2018-12-27T10:17:49.036Z,1060
2018-12-27T10:18:29.484Z,1064
2018-12-27T10:19:09.821Z,1072
2018-12-27T10:19:50.303Z,1084
2018-12-27T10:20:30.674Z,1088
2018-12-27T10:21:11.101Z,1088
2018-12-27T10:21:51.424Z,1080
2018-12-27T10:22:31.820Z,1072
2018-12-27T10:23:12.200Z,1080
2018-12-27T10:23:52.567Z,1092
2018-12-27T10:24:32.997Z,1108
2018-12-27T10:25:13.395Z,1100
2018-12-27T10:25:53.775Z,1100
2018-12-27T10:26:34.149Z,1104
2018-12-27T10:27:14.494Z,1104
2018-12-27T10:27:54.912Z,1104
2018-12-27T10:28:35.247Z,1108
2018-12-27T10:29:16.751Z,1116
2018-12-27T10:29:57.149Z,1112
2018-12-27T11:17:41.617Z,956
2018-12-27T11:18:21.781Z,960
2018-12-27T11:19:02.165Z,960
2018-12-27T11:19:42.574Z,956
2018-12-27T11:20:22.989Z,952
2018-12-27T11:21:03.336Z,952
2018-12-27T11:21:43.851Z,952
2018-12-27T11:22:24.129Z,952
2018-12-27T11:23:04.542Z,960
2018-12-27T11:23:44.943Z,960
2018-12-27T11:24:25.341Z,956
2018-12-27T11:25:05.705Z,948
2018-12-27T11:25:46.125Z,948
2018-12-27T11:26:26.530Z,944
2018-12-27T11:27:06.903Z,940
2018-12-27T11:27:47.326Z,932
2018-12-27T11:52:10.655Z,948
2018-12-27T11:52:51.040Z,940
2018-12-27T11:53:31.428Z,940
2018-12-27T11:54:11.873Z,944
2018-12-27T11:54:52.244Z,952
2018-12-27T11:55:32.624Z,956
2018-12-27T11:56:13.043Z,952
2018-12-27T11:56:53.446Z,952
2018-12-27T11:57:33.844Z,952
2018-12-27T11:58:14.243Z,956
2018-12-27T11:58:54.675Z,956
2018-12-27T11:59:35.100Z,952
2018-12-27T12:00:15.430Z,956
2018-12-27T12:00:55.835Z,960
2018-12-27T12:01:36.199Z,960
2018-12-27T12:02:16.587Z,968
2018-12-27T12:02:57.019Z,972
2018-12-27T12:03:37.363Z,980
2018-12-27T12:04:17.814Z,988
2018-12-27T12:04:58.199Z,992
2018-12-27T12:05:38.629Z,996
2018-12-27T12:06:19.001Z,992
2018-12-27T12:06:59.377Z,984
2018-12-27T12:07:39.739Z,980
2018-12-27T12:08:20.143Z,972
2018-12-27T12:09:00.534Z,968
2018-12-27T12:09:40.996Z,964
2018-12-27T12:10:21.336Z,952
2018-12-27T12:11:01.764Z,948
2018-12-27T12:11:42.169Z,944
2018-12-27T12:12:22.511Z,940
2018-12-27T12:13:02.917Z,936
2018-12-27T12:13:43.301Z,936
2018-12-27T12:14:23.694Z,932
2018-12-27T12:15:04.114Z,932
2018-12-27T12:15:44.489Z,928
2018-12-27T12:16:24.873Z,932
2018-12-27T12:17:05.281Z,928
2018-12-27T12:17:45.684Z,924
2018-12-27T12:18:26.096Z,924
2018-12-27T12:19:06.550Z,920
2018-12-27T12:19:46.947Z,916
2018-12-27T12:20:27.318Z,916
2018-12-27T12:21:07.685Z,912
2018-12-27T12:21:48.116Z,908
2018-12-27T12:22:28.543Z,912
2018-12-27T12:23:08.931Z,912
2018-12-27T12:23:49.351Z,908
2018-12-27T12:24:29.738Z,912
2018-12-27T12:25:10.138Z,916
2018-12-27T12:25:50.508Z,924
2018-12-27T12:26:30.891Z,928
2018-12-27T12:27:11.288Z,928
2018-12-27T12:27:51.697Z,936
2018-12-27T12:28:32.103Z,936
2018-12-27T12:29:12.515Z,944
2018-12-27T12:29:52.892Z,948
2018-12-27T12:30:33.325Z,956
2018-12-27T12:31:13.702Z,952
2018-12-27T12:31:54.137Z,940
2018-12-27T12:32:34.499Z,940
2018-12-27T12:33:14.924Z,936
2018-12-27T12:33:55.368Z,944
2018-12-27T12:34:35.716Z,944
2018-12-27T12:35:16.121Z,932
2018-12-27T12:35:56.525Z,928
2018-12-27T12:36:36.951Z,924
2018-12-27T12:37:17.340Z,912
2018-12-27T12:37:57.718Z,904
2018-12-27T12:38:38.074Z,896
2018-12-27T12:39:18.519Z,888
2018-12-27T12:39:58.840Z,884
2018-12-27T12:40:39.255Z,884
2018-12-27T12:41:19.654Z,876
2018-12-27T12:42:00.032Z,864
2018-12-27T12:42:40.418Z,872
2018-12-27T12:43:20.821Z,860
2018-12-27T12:44:01.188Z,864
2018-12-27T12:44:41.592Z,860
2018-12-27T12:45:21.979Z,844
2018-12-27T12:46:02.371Z,836
2018-12-27T12:46:42.780Z,828
2018-12-27T12:47:23.170Z,820
2018-12-27T12:48:03.552Z,804
2018-12-27T12:48:44.026Z,800
2018-12-27T12:49:24.336Z,800
2018-12-27T12:50:04.732Z,804
2018-12-27T12:50:45.154Z,800
2018-12-27T12:51:25.523Z,796
2018-12-27T12:52:05.935Z,796
2018-12-27T12:52:46.285Z,796
2018-12-27T12:53:27.655Z,804
2018-12-27T12:54:08.017Z,796
2018-12-27T12:54:48.446Z,796
2018-12-27T12:55:28.881Z,796
2018-12-27T12:56:09.249Z,800
2018-12-27T12:56:49.654Z,800
2018-12-27T12:57:30.075Z,792
2018-12-27T13:08:28.102Z,816
2018-12-27T13:42:37.222Z,580
2018-12-27T13:43:17.468Z,572
2018-12-27T13:43:57.876Z,564
2018-12-27T13:44:38.278Z,560
2018-12-27T13:45:18.757Z,552
2018-12-27T13:45:59.102Z,548
2018-12-27T13:46:39.527Z,536
2018-12-27T13:47:19.981Z,528
2018-12-27T13:48:00.337Z,516
2018-12-27T13:48:40.744Z,508
2018-12-27T13:49:21.136Z,496
2018-12-27T13:50:01.529Z,484
2018-12-27T13:50:41.920Z,476
2018-12-27T13:51:22.319Z,464
2018-12-27T13:52:02.732Z,456
2018-12-27T13:52:43.131Z,452
2018-12-27T13:53:23.591Z,440
2018-12-27T13:54:03.924Z,436
2018-12-27T13:54:44.292Z,428
2018-12-27T13:55:24.739Z,424
2018-12-27T13:56:05.074Z,416
2018-12-27T13:56:45.501Z,416
2018-12-27T13:57:25.956Z,412
2018-12-27T13:58:06.379Z,412
2018-12-27T13:58:46.738Z,408
2018-12-27T13:59:27.126Z,412
2018-12-27T14:00:07.543Z,412
2018-12-27T14:00:47.961Z,408
2018-12-27T14:01:28.352Z,408
2018-12-27T14:02:08.805Z,412
2018-12-27T14:02:49.260Z,408
2018-12-27T14:03:29.681Z,412
2018-12-27T14:04:10.106Z,404
2018-12-27T14:04:50.557Z,408
2018-12-27T14:05:30.914Z,408
2018-12-27T14:06:11.318Z,404
2018-12-27T14:06:51.708Z,400
2018-12-27T14:07:32.107Z,400
2018-12-27T14:08:12.519Z,396
2018-12-27T14:08:52.898Z,396
2018-12-27T14:09:33.277Z,396
2018-12-27T14:10:13.661Z,396
2018-12-27T14:10:54.053Z,392
2018-12-27T14:11:34.505Z,388
2018-12-27T14:12:15.038Z,388
2018-12-27T14:12:55.443Z,384
2018-12-27T14:13:35.867Z,384
2018-12-27T14:14:16.193Z,380
2018-12-27T14:14:56.654Z,380
2018-12-27T14:15:36.993Z,380
2018-12-27T14:16:17.389Z,372
2018-12-27T14:16:57.785Z,372
2018-12-27T14:17:38.178Z,372
2018-12-27T14:18:18.574Z,368
2018-12-27T14:18:58.970Z,364
2018-12-27T14:19:39.359Z,356
2018-12-27T14:20:19.738Z,352
2018-12-27T14:21:00.259Z,352
2018-12-27T14:21:40.701Z,348
2018-12-27T14:22:21.093Z,344
2018-12-27T14:23:01.448Z,344
2018-12-27T14:23:41.826Z,336
2018-12-27T14:24:22.220Z,336
2018-12-27T14:25:02.709Z,332
2018-12-27T14:25:43.074Z,328
2018-12-27T14:26:23.494Z,324
2018-12-27T14:27:03.875Z,320
2018-12-27T14:27:44.345Z,316
2018-12-27T14:28:24.706Z,312
2018-12-27T14:29:05.102Z,304
2018-12-27T14:29:45.521Z,300
2018-12-27T14:30:25.899Z,296
2018-12-27T14:31:06.303Z,292
2018-12-27T14:31:46.680Z,288
2018-12-27T14:32:27.084Z,284
2018-12-27T14:33:07.489Z,276
2018-12-27T14:33:47.860Z,272
2018-12-27T14:34:28.235Z,272
2018-12-27T14:35:08.654Z,264
2018-12-27T14:35:49.054Z,264
2018-12-27T14:36:29.432Z,264
2018-12-27T14:37:09.878Z,260
2018-12-27T14:37:50.290Z,256
2018-12-27T14:38:30.774Z,252
2018-12-27T14:39:11.246Z,248
2018-12-27T14:39:51.675Z,248
2018-12-27T14:40:32.051Z,240
2018-12-27T14:41:12.474Z,236
2018-12-27T14:41:52.863Z,232
2018-12-27T14:42:33.262Z,228
2018-12-27T14:43:13.699Z,220
2018-12-27T14:43:54.052Z,216
2018-12-27T14:44:34.548Z,212
2018-12-27T14:45:15.041Z,208
2018-12-27T14:45:55.388Z,204
2018-12-27T14:46:35.818Z,196
2018-12-27T14:47:16.159Z,192
2018-12-27T14:47:56.596Z,188
2018-12-27T14:48:37.005Z,184
2018-12-27T14:49:17.404Z,180
2018-12-27T14:49:57.857Z,172
2018-12-27T14:50:38.219Z,168
2018-12-27T14:51:18.661Z,164
2018-12-27T14:52:00.741Z,160
2018-12-27T14:52:41.457Z,156
2018-12-27T14:53:21.875Z,148
2018-12-27T14:54:02.237Z,148
2018-12-27T14:54:42.655Z,144
2018-12-27T14:55:23.036Z,140
2018-12-27T14:56:05.227Z,136
2018-12-27T14:56:45.636Z,132
2018-12-27T14:57:25.996Z,128
2018-12-27T14:58:07.318Z,124
2018-12-27T14:58:47.802Z,120
2018-12-27T14:59:28.101Z,116
2018-12-27T15:00:08.513Z,112
2018-12-27T15:00:48.875Z,112
2018-12-27T15:01:29.300Z,108
2018-12-27T15:02:09.665Z,104
2018-12-27T15:02:50.094Z,100
2018-12-27T15:03:30.538Z,100
2018-12-27T15:04:11.009Z,92
2018-12-27T15:04:51.358Z,92
2018-12-27T15:05:31.779Z,88
2018-12-27T15:06:12.146Z,84
2018-12-27T15:06:52.691Z,80
2018-12-27T15:07:33.082Z,80
2018-12-27T15:08:13.503Z,76
2018-12-27T15:08:53.907Z,76
2018-12-27T15:09:34.263Z,72
2018-12-27T15:10:15.608Z,68
2018-12-27T15:10:55.977Z,68
2018-12-27T15:11:36.418Z,64
2018-12-27T15:12:16.809Z,60
2018-12-27T15:12:57.244Z,56
2018-12-27T15:13:37.698Z,52
2018-12-27T15:14:18.094Z,52
2018-12-27T15:14:58.507Z,48
2018-12-27T15:15:38.906Z,48
2018-12-27T15:16:19.315Z,44
2018-12-27T15:16:59.743Z,40
2018-12-27T15:17:40.067Z,40
2018-12-27T15:18:20.543Z,36
2018-12-27T15:19:01.034Z,36
2018-12-27T15:19:41.401Z,32
2018-12-27T15:20:21.820Z,32
2018-12-27T15:21:02.180Z,32
2018-12-27T15:21:42.656Z,32
2018-12-27T15:22:23.045Z,28
2018-12-27T15:23:03.389Z,28
2018-12-27T15:23:43.838Z,24
2018-12-27T15:24:24.267Z,28
2018-12-27T15:25:04.619Z,24
2018-12-27T15:25:45.061Z,24
2018-12-27T15:26:25.456Z,24
2018-12-27T15:27:05.868Z,24
2018-12-27T15:27:46.275Z,24
2018-12-27T15:28:26.704Z,24
2018-12-27T15:29:07.050Z,20
2018-12-27T15:29:47.454Z,20
2018-12-27T15:30:27.868Z,20
2018-12-27T15:31:08.247Z,20
2018-12-27T15:31:48.662Z,16
2018-12-27T15:32:29.043Z,20
2018-12-27T15:33:09.491Z,16
2018-12-27T15:33:49.820Z,12
2018-12-27T15:34:30.249Z,16
2018-12-27T15:35:10.849Z,12
2018-12-27T15:35:51.350Z,12
2018-12-27T15:36:31.796Z,16
2018-12-27T15:37:12.144Z,12
2018-12-27T15:37:52.543Z,12
2018-12-27T15:38:32.938Z,8
2018-12-27T15:39:13.376Z,12
2018-12-27T15:39:53.707Z,8
2018-12-27T15:40:34.070Z,8
2018-12-27T15:41:14.457Z,8
2018-12-27T15:41:54.858Z,4
2018-12-27T15:42:35.286Z,8
2018-12-27T15:43:15.695Z,8
2018-12-27T15:43:56.190Z,8
2018-12-27T15:44:36.531Z,4
2018-12-27T15:45:16.919Z,4
2018-12-27T15:45:57.267Z,4
2018-12-27T16:30:49.857Z,0
2018-12-27T16:31:30.220Z,0
2018-12-27T20:10:33.776Z,0
2018-12-27T20:11:14.218Z,0
2018-12-27T20:11:54.550Z,0
2018-12-27T20:12:34.921Z,0
2018-12-27T20:13:15.323Z,0
2018-12-27T20:13:55.703Z,0
2018-12-27T21:33:45.270Z,0
2018-12-27T21:34:25.649Z,0
2018-12-27T21:35:08.781Z,0
2018-12-27T21:35:49.880Z,0
2018-12-27T21:36:33.157Z,0
2018-12-27T21:37:13.511Z,0
2018-12-27T21:37:55.856Z,0
2018-12-27T21:38:36.497Z,0
2018-12-27T21:39:18.314Z,0
2018-12-27T21:39:58.715Z,0
2018-12-27T21:40:39.107Z,0
